Nadeshiko_maru — JD2502 — position and weather

sailwx.info

Track history (hours):
 
Tides and Currents Weather Stations Pressure Air Temp Water Temp Dewpoint Dewpoint Depression Visibility Wind Speed Wind Dir Waves Ship Positions

Nadeshiko_maru

Last reported at 2018-Jan-22 23:52 UTC. Time now 2018-Jan-23 00:07 UTC.
Position N 35°29' E 140°01'.

Length 69 m; draft 4.5 m.

Type: Tanker. MMSI: 431000393.

Date/timePositionNaut miles runAvg speedWind from/ knotsBaromVisibWave heightAir tempDewpointWater temp
2018-Jan-22 23:52N 35°29' E 140°01'2 5.2
2018-Jan-22 23:30N 35°30' E 139°59'1 2.2
2018-Jan-22 23:00N 35°30' E 139°57'510.2
2018-Jan-22 22:30N 35°30' E 139°51'5 9.6
2018-Jan-22 22:00N 35°30' E 139°45'0 0.0
2018-Jan-22 21:30N 35°30' E 139°45'0 0.0
2018-Jan-22 21:00N 35°30' E 139°45'0 0.0
2018-Jan-22 20:29N 35°30' E 139°45'0 0.0
2018-Jan-22 20:00N 35°30' E 139°45'0 0.0
2018-Jan-22 19:30N 35°30' E 139°45'0 0.0
2018-Jan-22 19:00N 35°30' E 139°45'0 0.0
2018-Jan-22 18:30N 35°30' E 139°45'0 0.0
2018-Jan-22 18:00N 35°30' E 139°45'0 0.0
2018-Jan-22 17:30N 35°30' E 139°45'0 0.0
2018-Jan-22 17:00N 35°30' E 139°45'0 0.0
2018-Jan-22 16:30N 35°30' E 139°45'0 0.0
2018-Jan-22 16:00N 35°30' E 139°45'0 0.0
2018-Jan-22 15:30N 35°30' E 139°45'0 0.0
2018-Jan-22 15:00N 35°30' E 139°45'0 0.0
2018-Jan-22 14:30N 35°30' E 139°45'0 0.0
2018-Jan-22 14:00N 35°30' E 139°45'0 0.0
2018-Jan-22 13:30N 35°30' E 139°45'0 0.0
2018-Jan-22 13:00N 35°30' E 139°45'0 0.0
2018-Jan-22 12:30N 35°30' E 139°45'0 0.0
2018-Jan-22 12:00N 35°30' E 139°45'0 0.0
2018-Jan-22 11:30N 35°30' E 139°45'0 0.0
2018-Jan-22 11:00N 35°30' E 139°45'0 0.0
2018-Jan-22 10:30N 35°30' E 139°45'0 0.0
2018-Jan-22 10:00N 35°30' E 139°45'0 0.0
2018-Jan-22 09:30N 35°30' E 139°45'0 0.0
2018-Jan-22 08:59N 35°30' E 139°45'0 0.0
2018-Jan-22 08:30N 35°30' E 139°45'0 0.0
2018-Jan-22 08:00N 35°30' E 139°45'0 0.0
2018-Jan-22 07:30N 35°30' E 139°45'0 0.0
2018-Jan-22 07:00N 35°30' E 139°45'3 5.3
2018-Jan-22 06:30N 35°29' E 139°48'0 0.8
2018-Jan-22 06:00N 35°29' E 139°49'0 0.6
2018-Jan-22 05:30N 35°30' E 139°49'3 6.9
2018-Jan-22 05:00N 35°31' E 139°45'0 0.7
2018-Jan-22 04:29N 35°31' E 139°44'0 0.0
2018-Jan-22 04:00N 35°31' E 139°44'0 0.0
2018-Jan-22 03:30N 35°31' E 139°44'0 0.0
2018-Jan-22 03:00N 35°31' E 139°44'0 0.0
2018-Jan-22 02:30N 35°31' E 139°44'0 0.0
2018-Jan-22 02:00N 35°31' E 139°44'0 0.0
2018-Jan-22 01:30N 35°31' E 139°44'0 0.0
2018-Jan-22 01:00N 35°31' E 139°44'0 0.0
2018-Jan-22 00:30N 35°31' E 139°44'0 0.0
2018-Jan-22 00:00N 35°31' E 139°44'0 0.1
2018-Jan-21 23:30N 35°31' E 139°44'2 3.4
2018-Jan-21 23:00N 35°30' E 139°46'3 6.4
2018-Jan-21 22:30N 35°28' E 139°48'510.0
2018-Jan-21 22:00N 35°23' E 139°46'5 9.9
2018-Jan-21 21:30N 35°18' E 139°45'510.4
2018-Jan-21 21:00N 35°13' E 139°47'510.2
2018-Jan-21 20:30N 35°08' E 139°46'5 9.8
2018-Jan-21 20:00N 35°04' E 139°43'5 9.7
2018-Jan-21 19:30N 35°01' E 139°39'5 9.6
2018-Jan-21 19:00N 34°58' E 139°34'1010.5
2018-Jan-21 18:01N 34°52' E 139°24'013.3
2018-Jan-21 18:00N 34°52' E 139°24'510.2
2018-Jan-21 17:29N 34°49' E 139°18'4 9.5
2018-Jan-21 17:00N 34°46' E 139°14'610.3
2018-Jan-21 16:22N 34°41' E 139°08'411.0
2018-Jan-21 16:00N 34°39' E 139°05'610.6
2018-Jan-21 15:29N 34°35' E 138°60'510.4
2018-Jan-21 14:58N 34°33' E 138°54'1010.9
2018-Jan-21 14:05N 34°31' E 138°42'210.4
2018-Jan-21 13:51N 34°31' E 138°39'610.7
2018-Jan-21 13:20N 34°31' E 138°32'1411.0
2018-Jan-21 12:02N 34°32' E 138°15'012.0
2018-Jan-21 12:00N 34°32' E 138°15'6710.8
2018-Jan-21 05:49N 34°38' E 136°54'411.1
2018-Jan-21 05:28N 34°40' E 136°50'511.7
2018-Jan-21 05:00N 34°45' E 136°47'611.7
2018-Jan-21 04:30N 34°50' E 136°44'611.3
2018-Jan-21 04:00N 34°55' E 136°41'3 5.0
2018-Jan-21 03:30N 34°56' E 136°38'0 0.1
2018-Jan-21 03:00N 34°56' E 136°38'0 0.0
2018-Jan-21 02:30N 34°56' E 136°38'0 0.0
2018-Jan-21 02:00N 34°56' E 136°38'0 0.0
2018-Jan-21 01:30N 34°56' E 136°38'0 0.0
2018-Jan-21 01:00N 34°56' E 136°38'0 0.0
2018-Jan-21 00:30N 34°56' E 136°38'0 0.0
2018-Jan-21 00:00N 34°56' E 136°38'0 0.0
2018-Jan-20 23:30N 34°56' E 136°38'2 4.3
2018-Jan-20 23:00N 34°56' E 136°41'2 4.9
2018-Jan-20 22:30N 34°54' E 136°41'0 0.0
2018-Jan-20 22:00N 34°54' E 136°41'0 0.0
2018-Jan-20 21:30N 34°54' E 136°41'0 0.0
2018-Jan-20 21:00N 34°54' E 136°41'0 0.0
2018-Jan-20 20:30N 34°54' E 136°41'0 0.0
2018-Jan-20 20:00N 34°54' E 136°41'0 0.0
2018-Jan-20 19:28N 34°54' E 136°41'0 0.0
2018-Jan-20 19:00N 34°54' E 136°41'0 0.0
2018-Jan-20 18:30N 34°54' E 136°41'0 0.0
2018-Jan-20 18:00N 34°54' E 136°41'0 0.0
2018-Jan-20 17:30N 34°54' E 136°41'0 0.0
2018-Jan-20 17:00N 34°54' E 136°41'0 0.0
2018-Jan-20 16:30N 34°54' E 136°41'0 0.1
2018-Jan-20 16:00N 34°54' E 136°41'3 6.7
2018-Jan-20 15:30N 34°57' E 136°40'1 2.4
2018-Jan-20 15:00N 34°56' E 136°38'0 0.0
2018-Jan-20 14:30N 34°56' E 136°38'0 0.0
2018-Jan-20 14:00N 34°56' E 136°38'0 0.0
2018-Jan-20 13:30N 34°56' E 136°38'0 0.0
2018-Jan-20 13:00N 34°56' E 136°38'0 0.0
2018-Jan-20 12:30N 34°56' E 136°38'0 0.0
2018-Jan-20 12:00N 34°56' E 136°38'0 0.0
2018-Jan-20 11:30N 34°56' E 136°38'0 0.0
2018-Jan-20 11:00N 34°56' E 136°38'0 0.0
2018-Jan-20 10:30N 34°56' E 136°38'0 0.0
2018-Jan-20 10:00N 34°56' E 136°38'0 0.0
2018-Jan-20 09:30N 34°56' E 136°38'0 0.0
2018-Jan-20 08:58N 34°56' E 136°38'0 0.0
2018-Jan-20 08:30N 34°56' E 136°38'0 0.0
2018-Jan-20 08:00N 34°56' E 136°38'0 0.0
2018-Jan-20 07:30N 34°56' E 136°38'0 0.0
2018-Jan-20 06:59N 34°56' E 136°38'0 0.0
2018-Jan-20 06:30N 34°56' E 136°38'0 0.0
2018-Jan-20 06:00N 34°56' E 136°38'0 0.1
2018-Jan-20 05:30N 34°56' E 136°38'1 2.0
2018-Jan-20 05:00N 34°57' E 136°40'3 5.4
2018-Jan-20 04:30N 34°55' E 136°42'4 7.5
2018-Jan-20 04:00N 34°52' E 136°44'4 7.7
2018-Jan-20 03:30N 34°48' E 136°46'4 7.7
2018-Jan-20 03:00N 34°45' E 136°48'4 7.1
2018-Jan-20 02:30N 34°42' E 136°50'251 7.8
2018-Jan-18 18:10N 33°10' E 132°08'1512.0
2018-Jan-18 16:52N 33°22' E 131°56'411.9
2018-Jan-18 16:30N 33°26' E 131°54'611.8
2018-Jan-18 15:59N 33°31' E 131°50'611.9
2018-Jan-18 15:30N 33°36' E 131°47'611.6
2018-Jan-18 15:00N 33°40' E 131°42'611.8
2018-Jan-18 14:30N 33°43' E 131°35'510.7
2018-Jan-18 14:00N 33°45' E 131°30'510.5
2018-Jan-18 13:30N 33°48' E 131°24'510.3
2018-Jan-18 13:00N 33°50' E 131°18'510.1
2018-Jan-18 12:30N 33°52' E 131°13'4 8.2
2018-Jan-18 12:00N 33°56' E 131°11'0 0.2
2018-Jan-18 11:30N 33°56' E 131°11'0 0.0
2018-Jan-18 11:00N 33°56' E 131°11'0 0.0
2018-Jan-18 10:30N 33°56' E 131°11'0 0.0
2018-Jan-18 10:00N 33°56' E 131°11'0 0.0
2018-Jan-18 09:30N 33°56' E 131°11'0 0.0
2018-Jan-18 09:00N 33°56' E 131°11'0 0.0
2018-Jan-18 08:30N 33°56' E 131°11'0 0.0
2018-Jan-18 08:00N 33°56' E 131°11'0 0.0
2018-Jan-18 07:30N 33°56' E 131°11'0 0.0
2018-Jan-18 07:00N 33°56' E 131°11'0 0.0
2018-Jan-18 06:30N 33°56' E 131°11'0 0.1
2018-Jan-18 06:00N 33°56' E 131°11'2 3.7
2018-Jan-18 05:30N 33°54' E 131°12'1 1.5
2018-Jan-18 05:00N 33°54' E 131°11'0 0.0
2018-Jan-18 04:30N 33°54' E 131°11'0 0.0
2018-Jan-18 04:00N 33°54' E 131°11'0 0.0
2018-Jan-18 03:30N 33°54' E 131°11'0 0.0
2018-Jan-18 03:00N 33°54' E 131°11'0 0.1
2018-Jan-18 02:30N 33°54' E 131°11'0 0.0
2018-Jan-18 02:00N 33°54' E 131°11'0 0.0
2018-Jan-18 01:30N 33°54' E 131°11'0 0.0
2018-Jan-18 01:00N 33°54' E 131°11'0 0.0
2018-Jan-18 00:00N 33°54' E 131°11'0 0.0
2018-Jan-17 23:57N 33°54' E 131°11'  
Track history (hours):
 
Tides and Currents Weather Stations Pressure Air Temp Water Temp Dewpoint Dewpoint Depression Visibility Wind Speed Wind Dir Waves Ship Positions

Nadeshiko_maru

Last reported at 2018-Jan-22 23:52 UTC. Time now 2018-Jan-23 00:07 UTC.
Position N 35°29' E 140°01'.

Length 69 m; draft 4.5 m.

Type: Tanker. MMSI: 431000393.

Date/timePositionNaut miles runAvg speedWind from/ knotsBaromVisibWave heightAir tempDewpointWater temp
2018-Jan-22 23:52N 35°29' E 140°01'2 5.2
2018-Jan-22 23:30N 35°30' E 139°59'1 2.2
2018-Jan-22 23:00N 35°30' E 139°57'510.2
2018-Jan-22 22:30N 35°30' E 139°51'5 9.6
2018-Jan-22 22:00N 35°30' E 139°45'0 0.0
2018-Jan-22 21:30N 35°30' E 139°45'0 0.0
2018-Jan-22 21:00N 35°30' E 139°45'0 0.0
2018-Jan-22 20:29N 35°30' E 139°45'0 0.0
2018-Jan-22 20:00N 35°30' E 139°45'0 0.0
2018-Jan-22 19:30N 35°30' E 139°45'0 0.0
2018-Jan-22 19:00N 35°30' E 139°45'0 0.0
2018-Jan-22 18:30N 35°30' E 139°45'0 0.0
2018-Jan-22 18:00N 35°30' E 139°45'0 0.0
2018-Jan-22 17:30N 35°30' E 139°45'0 0.0
2018-Jan-22 17:00N 35°30' E 139°45'0 0.0
2018-Jan-22 16:30N 35°30' E 139°45'0 0.0
2018-Jan-22 16:00N 35°30' E 139°45'0 0.0
2018-Jan-22 15:30N 35°30' E 139°45'0 0.0
2018-Jan-22 15:00N 35°30' E 139°45'0 0.0
2018-Jan-22 14:30N 35°30' E 139°45'0 0.0
2018-Jan-22 14:00N 35°30' E 139°45'0 0.0
2018-Jan-22 13:30N 35°30' E 139°45'0 0.0
2018-Jan-22 13:00N 35°30' E 139°45'0 0.0
2018-Jan-22 12:30N 35°30' E 139°45'0 0.0
2018-Jan-22 12:00N 35°30' E 139°45'0 0.0
2018-Jan-22 11:30N 35°30' E 139°45'0 0.0
2018-Jan-22 11:00N 35°30' E 139°45'0 0.0
2018-Jan-22 10:30N 35°30' E 139°45'0 0.0
2018-Jan-22 10:00N 35°30' E 139°45'0 0.0
2018-Jan-22 09:30N 35°30' E 139°45'0 0.0
2018-Jan-22 08:59N 35°30' E 139°45'0 0.0
2018-Jan-22 08:30N 35°30' E 139°45'0 0.0
2018-Jan-22 08:00N 35°30' E 139°45'0 0.0
2018-Jan-22 07:30N 35°30' E 139°45'0 0.0
2018-Jan-22 07:00N 35°30' E 139°45'3 5.3
2018-Jan-22 06:30N 35°29' E 139°48'0 0.8
2018-Jan-22 06:00N 35°29' E 139°49'0 0.6
2018-Jan-22 05:30N 35°30' E 139°49'3 6.9
2018-Jan-22 05:00N 35°31' E 139°45'0 0.7
2018-Jan-22 04:29N 35°31' E 139°44'0 0.0
2018-Jan-22 04:00N 35°31' E 139°44'0 0.0
2018-Jan-22 03:30N 35°31' E 139°44'0 0.0
2018-Jan-22 03:00N 35°31' E 139°44'0 0.0
2018-Jan-22 02:30N 35°31' E 139°44'0 0.0
2018-Jan-22 02:00N 35°31' E 139°44'0 0.0
2018-Jan-22 01:30N 35°31' E 139°44'0 0.0
2018-Jan-22 01:00N 35°31' E 139°44'0 0.0
2018-Jan-22 00:30N 35°31' E 139°44'0 0.0
2018-Jan-22 00:00N 35°31' E 139°44'0 0.1
2018-Jan-21 23:30N 35°31' E 139°44'2 3.4
2018-Jan-21 23:00N 35°30' E 139°46'3 6.4
2018-Jan-21 22:30N 35°28' E 139°48'510.0
2018-Jan-21 22:00N 35°23' E 139°46'5 9.9
2018-Jan-21 21:30N 35°18' E 139°45'510.4
2018-Jan-21 21:00N 35°13' E 139°47'510.2
2018-Jan-21 20:30N 35°08' E 139°46'5 9.8
2018-Jan-21 20:00N 35°04' E 139°43'5 9.7
2018-Jan-21 19:30N 35°01' E 139°39'5 9.6
2018-Jan-21 19:00N 34°58' E 139°34'1010.5
2018-Jan-21 18:01N 34°52' E 139°24'013.3
2018-Jan-21 18:00N 34°52' E 139°24'510.2
2018-Jan-21 17:29N 34°49' E 139°18'4 9.5
2018-Jan-21 17:00N 34°46' E 139°14'610.3
2018-Jan-21 16:22N 34°41' E 139°08'411.0
2018-Jan-21 16:00N 34°39' E 139°05'610.6
2018-Jan-21 15:29N 34°35' E 138°60'510.4
2018-Jan-21 14:58N 34°33' E 138°54'1010.9
2018-Jan-21 14:05N 34°31' E 138°42'210.4
2018-Jan-21 13:51N 34°31' E 138°39'610.7
2018-Jan-21 13:20N 34°31' E 138°32'1411.0
2018-Jan-21 12:02N 34°32' E 138°15'012.0
2018-Jan-21 12:00N 34°32' E 138°15'6710.8
2018-Jan-21 05:49N 34°38' E 136°54'411.1
2018-Jan-21 05:28N 34°40' E 136°50'511.7
2018-Jan-21 05:00N 34°45' E 136°47'611.7
2018-Jan-21 04:30N 34°50' E 136°44'611.3
2018-Jan-21 04:00N 34°55' E 136°41'3 5.0
2018-Jan-21 03:30N 34°56' E 136°38'0 0.1
2018-Jan-21 03:00N 34°56' E 136°38'0 0.0
2018-Jan-21 02:30N 34°56' E 136°38'0 0.0
2018-Jan-21 02:00N 34°56' E 136°38'0 0.0
2018-Jan-21 01:30N 34°56' E 136°38'0 0.0
2018-Jan-21 01:00N 34°56' E 136°38'0 0.0
2018-Jan-21 00:30N 34°56' E 136°38'0 0.0
2018-Jan-21 00:00N 34°56' E 136°38'0 0.0
2018-Jan-20 23:30N 34°56' E 136°38'2 4.3
2018-Jan-20 23:00N 34°56' E 136°41'2 4.9
2018-Jan-20 22:30N 34°54' E 136°41'0 0.0
2018-Jan-20 22:00N 34°54' E 136°41'0 0.0
2018-Jan-20 21:30N 34°54' E 136°41'0 0.0
2018-Jan-20 21:00N 34°54' E 136°41'0 0.0
2018-Jan-20 20:30N 34°54' E 136°41'0 0.0
2018-Jan-20 20:00N 34°54' E 136°41'0 0.0
2018-Jan-20 19:28N 34°54' E 136°41'0 0.0
2018-Jan-20 19:00N 34°54' E 136°41'0 0.0
2018-Jan-20 18:30N 34°54' E 136°41'0 0.0
2018-Jan-20 18:00N 34°54' E 136°41'0 0.0
2018-Jan-20 17:30N 34°54' E 136°41'0 0.0
2018-Jan-20 17:00N 34°54' E 136°41'0 0.0
2018-Jan-20 16:30N 34°54' E 136°41'0 0.1
2018-Jan-20 16:00N 34°54' E 136°41'3 6.7
2018-Jan-20 15:30N 34°57' E 136°40'1 2.4
2018-Jan-20 15:00N 34°56' E 136°38'0 0.0
2018-Jan-20 14:30N 34°56' E 136°38'0 0.0
2018-Jan-20 14:00N 34°56' E 136°38'0 0.0
2018-Jan-20 13:30N 34°56' E 136°38'0 0.0
2018-Jan-20 13:00N 34°56' E 136°38'0 0.0
2018-Jan-20 12:30N 34°56' E 136°38'0 0.0
2018-Jan-20 12:00N 34°56' E 136°38'0 0.0
2018-Jan-20 11:30N 34°56' E 136°38'0 0.0
2018-Jan-20 11:00N 34°56' E 136°38'0 0.0
2018-Jan-20 10:30N 34°56' E 136°38'0 0.0
2018-Jan-20 10:00N 34°56' E 136°38'0 0.0
2018-Jan-20 09:30N 34°56' E 136°38'0 0.0
2018-Jan-20 08:58N 34°56' E 136°38'0 0.0
2018-Jan-20 08:30N 34°56' E 136°38'0 0.0
2018-Jan-20 08:00N 34°56' E 136°38'0 0.0
2018-Jan-20 07:30N 34°56' E 136°38'0 0.0
2018-Jan-20 06:59N 34°56' E 136°38'0 0.0
2018-Jan-20 06:30N 34°56' E 136°38'0 0.0
2018-Jan-20 06:00N 34°56' E 136°38'0 0.1
2018-Jan-20 05:30N 34°56' E 136°38'1 2.0
2018-Jan-20 05:00N 34°57' E 136°40'3 5.4
2018-Jan-20 04:30N 34°55' E 136°42'4 7.5
2018-Jan-20 04:00N 34°52' E 136°44'4 7.7
2018-Jan-20 03:30N 34°48' E 136°46'4 7.7
2018-Jan-20 03:00N 34°45' E 136°48'4 7.1
2018-Jan-20 02:30N 34°42' E 136°50'251 7.8
2018-Jan-18 18:10N 33°10' E 132°08'1512.0
2018-Jan-18 16:52N 33°22' E 131°56'411.9
2018-Jan-18 16:30N 33°26' E 131°54'611.8
2018-Jan-18 15:59N 33°31' E 131°50'611.9
2018-Jan-18 15:30N 33°36' E 131°47'611.6
2018-Jan-18 15:00N 33°40' E 131°42'611.8
2018-Jan-18 14:30N 33°43' E 131°35'510.7
2018-Jan-18 14:00N 33°45' E 131°30'510.5
2018-Jan-18 13:30N 33°48' E 131°24'510.3
2018-Jan-18 13:00N 33°50' E 131°18'510.1
2018-Jan-18 12:30N 33°52' E 131°13'4 8.2
2018-Jan-18 12:00N 33°56' E 131°11'0 0.2
2018-Jan-18 11:30N 33°56' E 131°11'0 0.0
2018-Jan-18 11:00N 33°56' E 131°11'0 0.0
2018-Jan-18 10:30N 33°56' E 131°11'0 0.0
2018-Jan-18 10:00N 33°56' E 131°11'0 0.0
2018-Jan-18 09:30N 33°56' E 131°11'0 0.0
2018-Jan-18 09:00N 33°56' E 131°11'0 0.0
2018-Jan-18 08:30N 33°56' E 131°11'0 0.0
2018-Jan-18 08:00N 33°56' E 131°11'0 0.0
2018-Jan-18 07:30N 33°56' E 131°11'0 0.0
2018-Jan-18 07:00N 33°56' E 131°11'0 0.0
2018-Jan-18 06:30N 33°56' E 131°11'0 0.1
2018-Jan-18 06:00N 33°56' E 131°11'2 3.7
2018-Jan-18 05:30N 33°54' E 131°12'1 1.5
2018-Jan-18 05:00N 33°54' E 131°11'0 0.0
2018-Jan-18 04:30N 33°54' E 131°11'0 0.0
2018-Jan-18 04:00N 33°54' E 131°11'0 0.0
2018-Jan-18 03:30N 33°54' E 131°11'0 0.0
2018-Jan-18 03:00N 33°54' E 131°11'0 0.1
2018-Jan-18 02:30N 33°54' E 131°11'0 0.0
2018-Jan-18 02:00N 33°54' E 131°11'0 0.0
2018-Jan-18 01:30N 33°54' E 131°11'0 0.0
2018-Jan-18 01:00N 33°54' E 131°11'0 0.0
2018-Jan-18 00:00N 33°54' E 131°11'0 0.0
2018-Jan-17 23:57N 33°54' E 131°11'  

Dump ship's entire track history